Time;durP1;ratioP1;P1;durP2;ratioP2;P2;SDS_P1;SDS_P2;PMS_P1;PMS_P2;Temp;Humidity;BMP_temperature;BMP_pressure;BME280_temperature;BME280_humidity;BME280_pressure;Samples;Min_cycle;Max_cycle;Signal;HPM_P1;HPM_P2
2021/12/09 00:01:01;;;;;;;1.48;1.38;;;0.30;99.90;;;;;;4919936;29;20043;-79
2021/12/09 00:03:31;;;;;;;0.50;0.50;;;0.30;99.90;;;;;;4936874;29;20059;-78
2021/12/09 00:05:58;;;;;;;0.57;0.50;;;0.20;99.90;;;;;;4936399;29;20091;-79
2021/12/09 00:08:26;;;;;;;0.35;0.35;;;0.20;99.90;;;;;;4936795;29;20043;-79
2021/12/09 00:10:54;;;;;;;0.75;0.75;;;0.20;99.90;;;;;;4919418;29;20047;-79
2021/12/09 00:13:20;;;;;;;0.70;0.70;;;0.20;99.90;;;;;;4936573;29;20058;-80
2021/12/09 00:15:46;;;;;;;0.55;0.55;;;0.20;99.90;;;;;;4919599;29;20048;-80
2021/12/09 00:18:12;;;;;;;1.20;0.70;;;0.20;99.90;;;;;;4919104;29;20052;-79
2021/12/09 00:20:38;;;;;;;0.65;0.65;;;0.20;99.90;;;;;;4919218;29;20047;-81
2021/12/09 00:23:04;;;;;;;1.05;0.98;;;0.20;99.90;;;;;;4937407;29;20500;-80
2021/12/09 00:25:29;;;;;;;9.30;1.58;;;0.20;99.90;;;;;;4919053;29;20069;-78
2021/12/09 00:27:55;;;;;;;0.30;0.30;;;0.10;99.90;;;;;;4924839;29;20480;-76
2021/12/09 00:30:21;;;;;;;3.63;2.92;;;0.10;99.90;;;;;;4945507;29;20063;-79
2021/12/09 00:32:47;;;;;;;2.42;2.10;;;0.10;99.90;;;;;;4940457;29;20043;-81
2021/12/09 00:35:15;;;;;;;5.97;0.68;;;0.10;99.90;;;;;;4951021;29;20040;-79
2021/12/09 00:37:53;;;;;;;0.70;0.70;;;0.10;99.90;;;;;;4936495;29;20400;-78
2021/12/09 00:40:19;;;;;;;2.20;1.23;;;0.10;99.90;;;;;;4935851;29;20044;-80
2021/12/09 00:42:45;;;;;;;4.05;3.92;;;0.10;99.90;;;;;;4919000;29;20051;-82
2021/12/09 00:45:10;;;;;;;0.45;0.45;;;0.10;99.90;;;;;;4935926;29;20619;-78
2021/12/09 00:47:36;;;;;;;0.93;0.93;;;0.10;99.90;;;;;;4936007;29;20103;-79
2021/12/09 00:50:03;;;;;;;2.25;2.15;;;0.00;99.90;;;;;;4950579;29;20393;-79
2021/12/09 00:52:28;;;;;;;1.75;1.67;;;0.00;99.90;;;;;;4935861;29;20039;-79
2021/12/09 00:54:59;;;;;;;1.23;1.23;;;0.00;99.90;;;;;;4918624;29;20142;-79
2021/12/09 00:57:26;;;;;;;0.40;0.40;;;0.00;99.90;;;;;;4918086;29;20111;-81
2021/12/09 00:59:52;;;;;;;0.88;0.60;;;0.00;99.90;;;;;;4918410;29;20130;-79
2021/12/09 01:02:18;;;;;;;0.82;0.82;;;0.00;99.90;;;;;;4935700;29;20051;-79
2021/12/09 01:04:45;;;;;;;7.55;2.15;;;-0.10;99.90;;;;;;4935665;29;20047;-78
2021/12/09 01:07:11;;;;;;;0.85;0.85;;;-0.10;99.90;;;;;;4902027;29;20099;-80
2021/12/09 01:09:37;;;;;;;0.80;0.80;;;-0.10;99.90;;;;;;4935290;29;20040;-79
2021/12/09 01:12:04;;;;;;;1.92;1.83;;;-0.10;99.90;;;;;;4917077;29;20448;-78
2021/12/09 01:14:30;;;;;;;0.65;0.65;;;-0.10;99.90;;;;;;4899544;29;20072;-78
2021/12/09 01:16:55;;;;;;;0.70;0.70;;;-0.10;99.90;;;;;;4916527;29;20127;-80
2021/12/09 01:19:21;;;;;;;0.50;0.50;;;-0.10;99.90;;;;;;4899607;29;20042;-80
2021/12/09 01:21:47;;;;;;;1.58;1.38;;;-0.10;99.90;;;;;;4899929;29;20397;-79
2021/12/09 01:24:12;;;;;;;0.75;0.75;;;-0.10;99.90;;;;;;4899390;29;20083;-79
2021/12/09 01:26:38;;;;;;;0.32;0.32;;;-0.10;99.90;;;;;;4916473;29;20127;-79
2021/12/09 01:29:13;;;;;;;2.17;1.08;;;-0.10;99.90;;;;;;4899419;29;20489;-80
2021/12/09 01:31:40;;;;;;;1.52;1.52;;;-0.10;99.90;;;;;;4899045;29;20060;-79
2021/12/09 01:34:07;;;;;;;1.67;1.58;;;-0.10;99.90;;;;;;4916334;29;20136;-82
2021/12/09 01:36:35;;;;;;;0.50;0.50;;;-0.10;99.90;;;;;;4899616;29;20052;-80
2021/12/09 01:39:04;;;;;;;1.95;1.85;;;-0.20;99.90;;;;;;4899220;29;20044;-81
2021/12/09 01:41:30;;;;;;;0.65;0.65;;;-0.10;99.90;;;;;;4898978;29;20052;-80
2021/12/09 01:43:56;;;;;;;1.50;1.40;;;-0.20;99.90;;;;;;4899166;29;20052;-80
2021/12/09 01:46:22;;;;;;;0.50;0.50;;;-0.20;99.90;;;;;;4899418;29;20048;-80
2021/12/09 01:48:50;;;;;;;1.40;1.40;;;-0.20;99.90;;;;;;4899184;29;20052;-78
2021/12/09 01:51:17;;;;;;;1.73;1.63;;;-0.20;99.90;;;;;;4899170;29;20044;-82
2021/12/09 01:53:43;;;;;;;2.15;1.80;;;-0.20;99.90;;;;;;4915951;29;20040;-81
2021/12/09 01:56:13;;;;;;;2.97;2.78;;;-0.20;99.90;;;;;;4916049;29;20478;-81
2021/12/09 01:58:39;;;;;;;0.90;0.85;;;-0.20;99.90;;;;;;4916445;29;20123;-81
2021/12/09 02:01:06;;;;;;;2.47;2.28;;;-0.30;99.90;;;;;;4899400;29;20063;-81
2021/12/09 02:03:32;;;;;;;0.52;0.52;;;-0.30;99.90;;;;;;4915915;29;20520;-79
2021/12/09 02:05:58;;;;;;;0.88;0.88;;;-0.30;99.90;;;;;;4915886;29;20127;-78
2021/12/09 02:08:24;;;;;;;0.47;0.47;;;-0.30;99.90;;;;;;4916098;29;20126;-83
2021/12/09 02:10:53;;;;;;;0.40;0.40;;;-0.30;99.90;;;;;;4906880;29;20048;-83
2021/12/09 02:13:20;;;;;;;0.50;0.50;;;-0.40;99.90;;;;;;4894293;29;20515;-81
2021/12/09 02:15:46;;;;;;;1.00;1.00;;;-0.40;99.90;;;;;;4898987;29;20515;-81
2021/12/09 02:18:13;;;;;;;0.65;0.65;;;-0.40;99.90;;;;;;4916350;29;20048;-81
2021/12/09 02:20:41;;;;;;;0.65;0.65;;;-0.40;99.90;;;;;;4919747;29;20143;-81
2021/12/09 02:23:11;;;;;;;2.40;2.30;;;-0.40;99.90;;;;;;4902397;29;20040;-83
2021/12/09 02:25:44;;;;;;;1.05;1.05;;;-0.40;99.90;;;;;;4907953;29;20055;-77
2021/12/09 02:28:11;;;;;;;0.55;0.55;;;-0.40;99.90;;;;;;4930694;29;20075;-80
2021/12/09 02:30:37;;;;;;;0.50;0.50;;;-0.30;99.90;;;;;;4907536;29;20059;-82
2021/12/09 02:33:03;;;;;;;3.88;3.45;;;-0.40;99.90;;;;;;4919981;29;20052;-82
2021/12/09 02:35:29;;;;;;;0.50;0.50;;;-0.40;99.90;;;;;;4919765;29;20441;-78
2021/12/09 02:37:54;;;;;;;0.98;0.95;;;-0.40;99.90;;;;;;4902637;29;20090;-81
2021/12/09 02:40:20;;;;;;;1.70;1.70;;;-0.40;99.90;;;;;;4901835;29;20519;-82
2021/12/09 02:42:47;;;;;;;0.77;0.77;;;-0.40;99.90;;;;;;4919333;29;20462;-81
2021/12/09 02:45:12;;;;;;;1.45;1.35;;;-0.30;99.90;;;;;;4919313;29;20051;-82
2021/12/09 02:47:38;;;;;;;0.60;0.60;;;-0.40;99.90;;;;;;4901894;29;20130;-81
2021/12/09 02:50:06;;;;;;;4.50;1.63;;;-0.40;99.90;;;;;;4919108;29;20060;-82
2021/12/09 02:52:32;;;;;;;4.90;1.95;;;-0.40;99.90;;;;;;4919161;29;20068;-82
2021/12/09 02:54:58;;;;;;;1.27;1.27;;;-0.40;99.90;;;;;;4919064;29;20388;-80
2021/12/09 02:57:24;;;;;;;1.13;1.10;;;-0.40;99.90;;;;;;4919032;29;20048;-82
2021/12/09 02:59:50;;;;;;;0.40;0.40;;;-0.40;99.90;;;;;;4902312;29;20504;-81
2021/12/09 03:02:18;;;;;;;1.13;1.13;;;-0.40;99.90;;;;;;4918861;29;20048;-81
2021/12/09 03:04:48;;;;;;;2.38;1.42;;;-0.40;99.90;;;;;;4918891;29;20059;-82
2021/12/09 03:07:32;;;;;;;0.93;0.93;;;-0.40;99.90;;;;;;4918967;29;20044;-82
2021/12/09 03:10:03;;;;;;;0.88;0.85;;;-0.40;99.90;;;;;;4918620;29;20044;-81
2021/12/09 03:12:31;;;;;;;0.40;0.40;;;-0.40;99.90;;;;;;4902078;29;20099;-82
2021/12/09 03:14:57;;;;;;;0.40;0.40;;;-0.40;99.90;;;;;;4918908;29;20056;-81
2021/12/09 03:17:23;;;;;;;5.05;1.48;;;-0.40;99.90;;;;;;4918530;29;20040;-82
2021/12/09 03:19:50;;;;;;;0.63;0.63;;;-0.50;99.90;;;;;;4918749;29;20048;-79
2021/12/09 03:22:17;;;;;;;2.95;2.85;;;-0.50;99.90;;;;;;4901322;29;20048;-82
2021/12/09 03:24:43;;;;;;;0.47;0.47;;;-0.50;99.90;;;;;;4918632;29;20052;-80
2021/12/09 03:27:09;;;;;;;0.50;0.50;;;-0.50;99.90;;;;;;4906174;29;20048;-80
2021/12/09 03:29:35;;;;;;;0.57;0.57;;;-0.40;99.90;;;;;;4910221;29;20077;-79
2021/12/09 03:32:05;;;;;;;14.70;3.58;;;-0.40;99.90;;;;;;4918524;29;20505;-80
2021/12/09 03:34:32;;;;;;;0.90;0.90;;;-0.40;99.90;;;;;;4918457;29;20083;-79
2021/12/09 03:37:01;;;;;;;2.08;1.98;;;-0.40;99.90;;;;;;4918512;29;20048;-81
2021/12/09 03:39:30;;;;;;;1.90;1.75;;;-0.40;99.90;;;;;;4901457;29;20060;-80
2021/12/09 03:41:56;;;;;;;0.40;0.40;;;-0.50;99.90;;;;;;4918016;29;20047;-81
2021/12/09 03:44:23;;;;;;;1.38;0.68;;;-0.50;99.90;;;;;;4900958;29;20059;-81
2021/12/09 03:46:51;;;;;;;0.85;0.85;;;-0.50;99.90;;;;;;4918139;29;20075;-78
2021/12/09 03:49:18;;;;;;;1.70;1.65;;;-0.50;99.90;;;;;;4918166;29;20052;-80
2021/12/09 03:51:43;;;;;;;3.50;0.80;;;-0.50;99.90;;;;;;4917885;29;20055;-80
2021/12/09 03:54:11;;;;;;;3.60;1.20;;;-0.50;99.90;;;;;;4901033;29;20048;-79
2021/12/09 03:56:38;;;;;;;7.05;2.30;;;-0.50;99.90;;;;;;4917726;29;20112;-81
2021/12/09 03:59:06;;;;;;;0.60;0.60;;;-0.50;99.90;;;;;;4900815;29;20048;-81
2021/12/09 04:01:33;;;;;;;1.33;1.33;;;-0.60;99.90;;;;;;4917504;29;20052;-81
2021/12/09 04:03:59;;;;;;;0.68;0.68;;;-0.50;99.90;;;;;;4927039;29;20531;-81
2021/12/09 04:06:24;;;;;;;0.75;0.75;;;-0.50;99.90;;;;;;4936913;29;20086;-80
2021/12/09 04:08:50;;;;;;;1.05;1.05;;;-0.60;99.90;;;;;;4936859;29;20039;-81
2021/12/09 04:11:17;;;;;;;0.65;0.65;;;-0.50;99.90;;;;;;4936716;29;20050;-80
2021/12/09 04:13:43;;;;;;;2.20;2.05;;;-0.60;99.90;;;;;;4936658;29;20051;-79
2021/12/09 04:16:09;;;;;;;2.83;1.23;;;-0.60;99.90;;;;;;4936692;29;20039;-81
2021/12/09 04:18:36;;;;;;;1.02;1.00;;;-0.60;99.90;;;;;;4919310;29;20055;-80
2021/12/09 04:21:03;;;;;;;1.92;1.90;;;-0.50;99.90;;;;;;4936527;29;20122;-81
2021/12/09 04:23:29;;;;;;;1.52;1.52;;;-0.50;99.90;;;;;;4936822;29;20050;-80
2021/12/09 04:25:56;;;;;;;2.45;2.35;;;-0.50;99.90;;;;;;4937806;29;20047;-81
2021/12/09 04:28:22;;;;;;;1.95;1.95;;;-0.50;99.90;;;;;;4925374;29;20070;-81
2021/12/09 04:30:48;;;;;;;0.63;0.63;;;-0.50;99.90;;;;;;4943058;29;20134;-81
2021/12/09 04:33:14;;;;;;;1.27;1.27;;;-0.50;99.90;;;;;;4936609;29;20044;-82
2021/12/09 04:35:40;;;;;;;1.25;1.05;;;-0.50;99.90;;;;;;4919441;29;20106;-80
2021/12/09 04:38:06;;;;;;;1.05;1.05;;;-0.40;99.90;;;;;;4936730;29;20044;-81
2021/12/09 04:40:31;;;;;;;0.93;0.93;;;-0.40;99.90;;;;;;4936234;29;20382;-82
2021/12/09 04:42:57;;;;;;;0.40;0.40;;;-0.40;99.90;;;;;;4919249;29;20043;-81
2021/12/09 04:45:23;;;;;;;4.60;1.73;;;-0.40;99.90;;;;;;4936221;29;20110;-77
2021/12/09 04:47:48;;;;;;;3.75;1.20;;;-0.40;99.90;;;;;;4936088;29;20073;-81
2021/12/09 04:50:14;;;;;;;0.50;0.50;;;-0.40;99.90;;;;;;4936303;29;20040;-81
2021/12/09 04:55:11;;;;;;;1.15;1.15;;;-0.40;99.90;;;;;;4981895;23;20051;-81
2021/12/09 04:57:38;;;;;;;2.00;1.85;;;-0.40;99.90;;;;;;4974584;28;20398;-81
2021/12/09 05:00:09;;;;;;;1.77;1.67;;;-0.50;99.90;;;;;;4974643;28;20085;-78
2021/12/09 05:02:50;;;;;;;0.38;0.38;;;-0.50;99.90;;;;;;4974422;28;20046;-81
2021/12/09 05:05:16;;;;;;;5.05;3.22;;;-0.50;99.90;;;;;;4963828;28;20054;-79
2021/12/09 05:07:42;;;;;;;1.02;1.02;;;-0.50;99.90;;;;;;4993807;28;20050;-78
2021/12/09 05:10:09;;;;;;;0.40;0.40;;;-0.50;99.90;;;;;;4993725;28;20057;-79
2021/12/09 05:12:35;;;;;;;1.10;1.00;;;-0.50;99.90;;;;;;4976498;28;20043;-82
2021/12/09 05:15:00;;;;;;;0.77;0.77;;;-0.50;99.90;;;;;;4993734;28;20057;-81
2021/12/09 05:17:27;;;;;;;1.08;1.08;;;-0.50;99.90;;;;;;4993733;28;20082;-81
2021/12/09 05:19:53;;;;;;;0.73;0.73;;;-0.50;99.90;;;;;;4976165;28;20058;-80
2021/12/09 05:22:19;;;;;;;1.25;1.25;;;-0.50;99.90;;;;;;4993782;28;20511;-81
2021/12/09 05:24:48;;;;;;;1.77;1.67;;;-0.60;99.90;;;;;;4976035;28;20417;-79
2021/12/09 05:27:15;;;;;;;2.92;2.72;;;-0.50;99.90;;;;;;4993728;28;20100;-80
2021/12/09 05:29:43;;;;;;;0.90;0.90;;;-0.50;99.90;;;;;;4993628;28;20049;-81
2021/12/09 05:32:12;;;;;;;0.93;0.93;;;-0.50;99.90;;;;;;4993570;28;20042;-79
2021/12/09 05:34:44;;;;;;;1.73;1.67;;;-0.50;99.90;;;;;;4977599;28;20050;-81
2021/12/09 05:37:19;;;;;;;0.60;0.60;;;-0.60;99.90;;;;;;5000051;28;20506;-80
2021/12/09 05:39:45;;;;;;;0.43;0.43;;;-0.60;99.90;;;;;;4979572;28;20077;-81
2021/12/09 05:42:12;;;;;;;0.90;0.90;;;-0.60;99.90;;;;;;4993922;28;20043;-81
2021/12/09 05:44:38;;;;;;;0.82;0.82;;;-0.70;99.90;;;;;;4993834;28;20050;-82
2021/12/09 05:47:05;;;;;;;0.60;0.60;;;-0.70;99.90;;;;;;4975947;28;20038;-79
2021/12/09 05:49:39;;;;;;;2.72;2.47;;;-0.70;99.90;;;;;;4993555;28;20137;-82
2021/12/09 05:52:06;;;;;;;19.13;1.90;;;-0.60;99.90;;;;;;4993415;28;20082;-82
2021/12/09 05:54:33;;;;;;;2.28;1.17;;;-0.60;99.90;;;;;;4995336;28;20117;-80
2021/12/09 05:56:58;;;;;;;1.13;1.13;;;-0.70;99.90;;;;;;4979575;28;20414;-82
2021/12/09 05:59:25;;;;;;;2.30;1.08;;;-0.60;99.90;;;;;;4997050;28;20054;-81
2021/12/09 06:01:52;;;;;;;0.82;0.82;;;-0.70;99.90;;;;;;4997045;28;20035;-80
2021/12/09 06:04:17;;;;;;;1.00;1.00;;;-0.70;99.90;;;;;;4995949;28;20042;-78
2021/12/09 06:06:43;;;;;;;0.63;0.63;;;-0.70;99.90;;;;;;4979784;28;20133;-77
2021/12/09 06:09:11;;;;;;;0.50;0.50;;;-0.70;99.90;;;;;;4996758;28;20077;-78
2021/12/09 06:11:39;;;;;;;1.00;1.00;;;-0.70;99.90;;;;;;4996952;28;20039;-79
2021/12/09 06:14:07;;;;;;;2.65;2.45;;;-0.70;99.90;;;;;;4979364;28;20050;-80
2021/12/09 06:16:34;;;;;;;2.00;1.65;;;-0.70;99.90;;;;;;4996713;28;20046;-80
2021/12/09 06:19:03;;;;;;;1.88;0.82;;;-0.70;99.90;;;;;;4979457;28;20065;-79
2021/12/09 06:21:29;;;;;;;2.35;2.15;;;-0.70;99.90;;;;;;4979218;28;20050;-82
2021/12/09 06:23:57;;;;;;;0.80;0.70;;;-0.70;99.90;;;;;;4979032;28;20054;-81
2021/12/09 06:26:22;;;;;;;1.00;1.00;;;-0.70;99.90;;;;;;4996698;28;20049;-82
2021/12/09 06:28:48;;;;;;;0.50;0.50;;;-0.70;99.90;;;;;;4996624;28;20042;-81
2021/12/09 06:31:14;;;;;;;2.72;2.58;;;-0.70;99.90;;;;;;4996643;28;20486;-80
2021/12/09 06:33:40;;;;;;;3.13;2.15;;;-0.70;99.90;;;;;;4996654;28;20050;-81
2021/12/09 06:36:05;;;;;;;0.63;0.63;;;-0.70;99.90;;;;;;4996529;28;20046;-81
2021/12/09 06:38:32;;;;;;;0.47;0.47;;;-0.70;99.90;;;;;;4996553;28;20038;-81
2021/12/09 06:40:58;;;;;;;1.90;1.33;;;-0.70;99.90;;;;;;4996414;28;20046;-81
2021/12/09 06:43:24;;;;;;;0.95;0.95;;;-0.70;99.90;;;;;;4996093;28;20141;-81
2021/12/09 06:45:55;;;;;;;1.80;1.77;;;-0.70;99.90;;;;;;4996118;28;20544;-81
2021/12/09 06:48:21;;;;;;;1.33;1.33;;;-0.80;99.90;;;;;;4978738;28;20050;-80
2021/12/09 06:50:48;;;;;;;1.10;1.10;;;-0.80;99.90;;;;;;4996280;28;20474;-80
2021/12/09 06:53:15;;;;;;;0.80;0.80;;;-0.80;99.90;;;;;;4996266;28;20046;-80
2021/12/09 06:55:43;;;;;;;1.83;1.73;;;-0.80;99.90;;;;;;4978401;28;20185;-80
2021/12/09 06:58:09;;;;;;;0.70;0.70;;;-0.90;99.90;;;;;;4996023;28;20407;-82
2021/12/09 07:00:41;;;;;;;1.25;1.25;;;-0.80;99.90;;;;;;4995808;28;20045;-81
2021/12/09 07:03:08;;;;;;;14.05;3.35;;;-0.80;99.90;;;;;;4995760;28;20556;-82
2021/12/09 07:05:36;;;;;;;3.42;3.22;;;-0.80;99.90;;;;;;4994907;28;20397;-81
2021/12/09 07:08:02;;;;;;;1.45;1.35;;;-0.80;99.90;;;;;;4995809;28;20038;-82
2021/12/09 07:10:27;;;;;;;7.65;3.90;;;-0.80;99.90;;;;;;4978333;28;20046;-80
2021/12/09 07:12:53;;;;;;;1.02;1.02;;;-0.80;99.90;;;;;;4995720;28;20170;-81
2021/12/09 07:15:20;;;;;;;1.55;1.10;;;-0.80;99.90;;;;;;4995657;28;20109;-81
2021/12/09 07:17:46;;;;;;;1.17;1.15;;;-0.80;99.90;;;;;;4995730;28;20162;-81
2021/12/09 07:20:16;;;;;;;4.40;1.75;;;-0.80;99.90;;;;;;4995766;28;20050;-81
2021/12/09 07:22:41;;;;;;;0.57;0.57;;;-0.80;99.90;;;;;;4995612;28;20461;-80
2021/12/09 07:25:08;;;;;;;1.55;1.45;;;-0.80;99.90;;;;;;4995531;28;20069;-80
2021/12/09 07:27:33;;;;;;;1.27;1.17;;;-0.80;99.90;;;;;;4978078;28;20077;-81
2021/12/09 07:29:59;;;;;;;1.42;1.42;;;-0.80;99.90;;;;;;4995269;28;20042;-83
2021/12/09 07:32:25;;;;;;;6.72;1.88;;;-0.80;99.90;;;;;;4995558;28;20049;-82
2021/12/09 07:34:51;;;;;;;0.50;0.50;;;-0.80;99.90;;;;;;4995272;28;20394;-81
2021/12/09 07:37:16;;;;;;;1.27;1.13;;;-0.90;99.90;;;;;;4995454;28;20057;-81
2021/12/09 07:39:42;;;;;;;0.98;0.85;;;-0.80;99.90;;;;;;4995172;28;20448;-80
2021/12/09 07:42:11;;;;;;;0.40;0.40;;;-0.80;99.90;;;;;;4995210;28;20073;-81
2021/12/09 07:44:37;;;;;;;1.20;1.05;;;-0.90;99.90;;;;;;4994965;28;20564;-82
2021/12/09 07:47:03;;;;;;;1.88;1.77;;;-0.90;99.90;;;;;;4995290;28;20133;-80
2021/12/09 07:49:28;;;;;;;2.33;1.20;;;-0.90;99.90;;;;;;4995233;28;20398;-82
2021/12/09 07:51:55;;;;;;;1.15;1.15;;;-0.90;99.90;;;;;;4977636;28;20046;-81
2021/12/09 07:54:23;;;;;;;2.22;2.17;;;-0.90;99.90;;;;;;4977391;28;20073;-81
2021/12/09 07:56:49;;;;;;;0.80;0.80;;;-0.90;99.90;;;;;;4994950;28;20056;-80
2021/12/09 07:59:15;;;;;;;0.38;0.38;;;-0.80;99.90;;;;;;4977887;28;20057;-81
2021/12/09 08:01:41;;;;;;;0.30;0.30;;;-0.80;99.90;;;;;;4994984;28;20052;-81
2021/12/09 08:04:08;;;;;;;4.57;1.63;;;-0.80;99.90;;;;;;4977215;28;20042;-81
2021/12/09 08:06:37;;;;;;;0.30;0.30;;;-0.80;99.90;;;;;;4977518;28;20046;-81
2021/12/09 08:09:04;;;;;;;0.95;0.95;;;-0.80;99.90;;;;;;4994654;28;20053;-81
2021/12/09 08:11:33;;;;;;;2.10;2.00;;;-0.70;99.90;;;;;;4994755;28;20144;-80
2021/12/09 08:13:59;;;;;;;1.88;0.63;;;-0.80;99.90;;;;;;4977338;28;20174;-81
2021/12/09 08:16:25;;;;;;;0.85;0.85;;;-0.80;99.90;;;;;;4994237;28;20050;-81
2021/12/09 08:18:53;;;;;;;1.98;1.88;;;-0.80;99.90;;;;;;4994403;28;20108;-81
2021/12/09 08:21:20;;;;;;;0.70;0.70;;;-0.80;99.90;;;;;;4977186;28;20050;-81
2021/12/09 08:23:46;;;;;;;1.65;1.55;;;-0.80;99.90;;;;;;4994520;28;20049;-81
2021/12/09 08:26:12;;;;;;;2.08;1.98;;;-0.80;99.90;;;;;;4994397;28;20058;-81
2021/12/09 08:28:38;;;;;;;1.00;1.00;;;-0.80;99.90;;;;;;4976822;28;20097;-82
2021/12/09 08:31:04;;;;;;;1.83;1.75;;;-0.70;99.90;;;;;;4994462;28;20454;-81
2021/12/09 08:33:29;;;;;;;1.90;1.80;;;-0.70;99.90;;;;;;4994357;28;20070;-82
2021/12/09 08:35:55;;;;;;;5.03;1.55;;;-0.70;99.90;;;;;;4977111;28;20050;-81
2021/12/09 08:38:22;;;;;;;1.75;1.75;;;-0.60;99.90;;;;;;4976688;28;20082;-82
2021/12/09 08:40:49;;;;;;;7.32;3.33;;;-0.60;99.90;;;;;;4994282;28;20042;-81
2021/12/09 08:43:16;;;;;;;1.23;1.23;;;-0.50;99.90;;;;;;4994101;28;20054;-83
2021/12/09 08:45:42;;;;;;;1.63;1.52;;;-0.50;99.90;;;;;;4993909;28;20038;-83
2021/12/09 08:48:08;;;;;;;2.25;2.15;;;-0.50;99.90;;;;;;4976597;28;20217;-83
2021/12/09 08:50:34;;;;;;;4.85;3.40;;;-0.50;99.90;;;;;;4976778;28;20038;-83
2021/12/09 08:53:07;;;;;;;2.90;1.92;;;-0.50;99.90;;;;;;4993843;28;20445;-83
2021/12/09 08:55:34;;;;;;;3.78;2.30;;;-0.50;99.90;;;;;;4993722;28;20054;-83
2021/12/09 08:58:00;;;;;;;3.75;3.55;;;-0.50;99.90;;;;;;4976691;28;20057;-83
2021/12/09 09:00:28;;;;;;;2.13;2.03;;;-0.40;99.90;;;;;;4976341;28;20043;-83
2021/12/09 09:02:54;;;;;;;1.05;1.00;;;-0.40;99.90;;;;;;4993445;28;20090;-84
2021/12/09 09:05:20;;;;;;;1.70;1.40;;;-0.40;99.90;;;;;;4993893;28;20046;-82
2021/12/09 09:07:48;;;;;;;3.83;3.53;;;-0.30;99.90;;;;;;4976505;28;20042;-82
2021/12/09 09:10:17;;;;;;;1.42;1.33;;;-0.30;99.90;;;;;;4993815;28;20070;-82
2021/12/09 09:12:46;;;;;;;2.78;2.63;;;-0.30;99.90;;;;;;4993708;28;20109;-81
2021/12/09 09:15:15;;;;;;;0.77;0.77;;;-0.20;99.90;;;;;;4994495;28;20081;-81
2021/12/09 09:17:41;;;;;;;1.20;1.20;;;-0.20;99.90;;;;;;4976594;28;20064;-82
2021/12/09 09:20:10;;;;;;;0.77;0.77;;;-0.20;99.90;;;;;;4993619;28;20542;-82
2021/12/09 09:22:37;;;;;;;2.22;2.13;;;-0.20;99.90;;;;;;4993469;28;20045;-82
2021/12/09 09:25:08;;;;;;;0.75;0.75;;;-0.10;99.90;;;;;;4993286;28;20438;-82
2021/12/09 09:27:36;;;;;;;2.42;2.28;;;-0.10;99.90;;;;;;4976026;28;20046;-82
2021/12/09 09:30:07;;;;;;;2.50;1.85;;;-0.10;99.90;;;;;;4993233;28;20053;-82
2021/12/09 09:32:34;;;;;;;2.63;2.42;;;0.00;99.90;;;;;;4993566;28;20054;-83
2021/12/09 09:34:59;;;;;;;0.43;0.43;;;-0.10;99.90;;;;;;4993421;28;20042;-81
2021/12/09 09:37:25;;;;;;;1.95;1.80;;;0.00;99.90;;;;;;4993194;28;20145;-82
2021/12/09 09:39:51;;;;;;;2.35;2.25;;;0.00;99.90;;;;;;4993328;28;20042;-82
2021/12/09 09:45:10;;;;;;;0.73;0.73;;;0.10;99.90;;;;;;4993367;28;20069;-82
2021/12/09 09:47:36;;;;;;;2.15;1.92;;;0.10;99.90;;;;;;4975775;28;20045;-82
2021/12/09 09:50:05;;;;;;;0.65;0.65;;;0.10;99.90;;;;;;4993302;28;20046;-82
2021/12/09 09:52:31;;;;;;;2.58;2.47;;;0.20;99.90;;;;;;4993189;28;20042;-82
2021/12/09 09:54:59;;;;;;;1.90;1.85;;;0.20;99.90;;;;;;4992870;28;20137;-82
2021/12/09 09:57:25;;;;;;;0.30;0.30;;;0.30;99.90;;;;;;4993362;28;20503;-81
2021/12/09 09:59:51;;;;;;;3.80;1.05;;;0.30;99.90;;;;;;4993325;28;20125;-82
2021/12/09 10:02:17;;;;;;;1.08;0.98;;;0.40;99.90;;;;;;4993337;28;20399;-81
2021/12/09 10:04:46;;;;;;;0.88;0.88;;;0.40;99.90;;;;;;4993153;28;20048;-82
2021/12/09 10:07:14;;;;;;;1.05;1.00;;;0.40;99.90;;;;;;4993074;28;20046;-81
2021/12/09 10:09:40;;;;;;;1.42;1.42;;;0.40;99.90;;;;;;4992941;28;20410;-82
2021/12/09 10:12:08;;;;;;;0.75;0.75;;;0.50;99.90;;;;;;4993035;28;20471;-81
2021/12/09 10:14:35;;;;;;;1.00;1.00;;;0.50;99.90;;;;;;4993120;28;20050;-81
2021/12/09 10:17:12;;;;;;;1.05;1.05;;;0.60;99.90;;;;;;4993159;28;20038;-81
2021/12/09 10:20:03;;;;;;;3.45;1.70;;;0.50;99.90;;;;;;4992969;28;20054;-82
2021/12/09 10:22:31;;;;;;;14.45;1.83;;;0.60;99.90;;;;;;4895021;29;20513;-81
2021/12/09 10:24:59;;;;;;;4.65;1.10;;;0.70;99.90;;;;;;4894837;29;20452;-82
2021/12/09 10:27:35;;;;;;;0.95;0.95;;;0.70;99.90;;;;;;4895002;29;20153;-82
2021/12/09 10:30:11;;;;;;;0.70;0.57;;;0.70;99.90;;;;;;4895015;29;20084;-82
2021/12/09 10:32:39;;;;;;;1.85;1.83;;;0.80;99.90;;;;;;4894864;29;20080;-82
2021/12/09 10:35:18;;;;;;;2.17;2.08;;;0.80;99.90;;;;;;4895066;29;20056;-82
2021/12/09 10:37:49;;;;;;;9.00;2.53;;;0.90;99.90;;;;;;4894387;29;20093;-82
2021/12/09 10:40:21;;;;;;;1.38;1.20;;;0.90;99.90;;;;;;4896867;29;20060;-82
2021/12/09 10:42:48;;;;;;;;;;;1.00;99.90;;;;;;4899077;29;20123;-82
2021/12/09 10:45:20;;;;;;;2.13;2.03;;;1.00;99.90;;;;;;4898387;29;20423;-82
2021/12/09 10:47:57;;;;;;;0.82;0.82;;;1.00;99.90;;;;;;4882599;29;20052;-83
2021/12/09 10:50:42;;;;;;;3.83;1.40;;;1.10;99.90;;;;;;4882533;29;20099;-84
2021/12/09 10:55:49;;;;;;;0.40;0.40;;;1.30;99.90;;;;;;4898027;29;20217;-83
2021/12/09 10:58:18;;;;;;;0.95;0.95;;;1.40;99.90;;;;;;4898029;29;20088;-80
2021/12/09 11:00:53;;;;;;;0.30;0.30;;;1.50;99.90;;;;;;4996141;28;20039;-83
2021/12/09 11:03:24;;;;;;;0.40;0.40;;;1.50;99.90;;;;;;4995836;28;20054;-83
2021/12/09 11:06:02;;;;;;;1.85;1.75;;;1.60;99.90;;;;;;4978244;28;20053;-83
2021/12/09 11:08:33;;;;;;;0.30;0.30;;;1.60;99.90;;;;;;4978487;28;20054;-83
2021/12/09 11:11:00;;;;;;;0.63;0.63;;;1.70;99.90;;;;;;4978668;28;20061;-83
2021/12/09 11:13:53;;;;;;;1.92;1.55;;;1.80;99.90;;;;;;4995956;28;20181;-84
2021/12/09 11:16:23;;;;;;;1.80;1.70;;;1.80;99.90;;;;;;4979046;28;20057;-85
2021/12/09 11:18:51;;;;;;;0.28;0.28;;;1.90;99.90;;;;;;4978492;28;20398;-85
2021/12/09 11:21:30;;;;;;;11.60;1.65;;;1.90;99.90;;;;;;4995737;28;20046;-84
2021/12/09 11:24:03;;;;;;;1.55;1.48;;;2.00;99.90;;;;;;4977930;28;20057;-85
2021/12/09 11:26:53;;;;;;;0.52;0.52;;;2.10;99.90;;;;;;4995420;28;20410;-84
2021/12/09 11:29:40;;;;;;;0.75;0.75;;;2.10;99.90;;;;;;4978118;28;20499;-85
2021/12/09 11:32:16;;;;;;;0.60;0.60;;;2.10;99.90;;;;;;4995712;28;20053;-83
2021/12/09 11:35:11;;;;;;;0.63;0.63;;;2.20;99.90;;;;;;4995409;28;20050;-83
2021/12/09 11:40:27;;;;;;;0.82;0.82;;;2.20;99.90;;;;;;4995244;28;20061;-84
2021/12/09 11:42:57;;;;;;;2.13;2.03;;;2.20;99.90;;;;;;4995166;28;20414;-83
2021/12/09 11:45:30;;;;;;;1.85;1.75;;;2.20;99.90;;;;;;4995091;28;20070;-84
2021/12/09 11:47:57;;;;;;;0.65;0.65;;;2.20;99.90;;;;;;4961845;28;20072;-85
2021/12/09 11:50:26;;;;;;;3.45;1.00;;;2.20;99.90;;;;;;4994873;28;20046;-84
2021/12/09 11:52:54;;;;;;;2.33;1.02;;;2.30;99.90;;;;;;4976881;28;20043;-84
2021/12/09 11:55:32;;;;;;;0.82;0.82;;;2.30;99.90;;;;;;4994881;28;20435;-84
2021/12/09 11:58:02;;;;;;;1.17;1.15;;;2.40;99.90;;;;;;4961244;28;20050;-84
2021/12/09 12:23:53;;;;;;;0.67;0.67;;;2.50;99.90;;;;;;4994420;28;20398;-85
2021/12/09 12:40:32;;;;;;;1.40;1.40;;;2.60;99.90;;;;;;4994731;28;20141;-87
2021/12/09 12:43:03;;;;;;;2.40;1.55;;;2.60;99.90;;;;;;4977256;28;20405;-87
2021/12/09 12:48:16;;;;;;;1.15;1.00;;;2.70;99.90;;;;;;4976819;28;20078;-85
2021/12/09 12:51:16;;;;;;;0.73;0.73;;;2.70;99.90;;;;;;4994429;28;20073;-86
2021/12/09 12:53:45;;;;;;;1.75;1.15;;;2.70;99.90;;;;;;4976651;28;20054;-87
2021/12/09 12:56:24;;;;;;;1.60;1.17;;;2.80;99.90;;;;;;4993998;28;20054;-87
2021/12/09 12:59:06;;;;;;;1.45;1.35;;;2.80;99.90;;;;;;4977285;28;20053;-85
2021/12/09 13:01:37;;;;;;;0.98;0.98;;;2.80;99.90;;;;;;4993933;28;20042;-85
2021/12/09 13:04:43;;;;;;;0.90;0.65;;;2.90;99.90;;;;;;4975542;28;20199;-84
2021/12/09 13:07:43;;;;;;;4.32;0.65;;;2.90;99.90;;;;;;4976868;28;20128;-87
2021/12/09 13:13:49;;;;;;;0.40;0.40;;;2.90;99.90;;;;;;4993747;28;20062;-84
2021/12/09 13:19:08;;;;;;;1.35;1.27;;;2.80;99.90;;;;;;4896557;29;20139;-83
2021/12/09 13:21:43;;;;;;;0.98;0.85;;;2.80;99.90;;;;;;4895898;29;20079;-86
2021/12/09 13:24:40;;;;;;;1.63;1.25;;;2.80;99.90;;;;;;4895607;29;20057;-85
2021/12/09 13:32:57;;;;;;;3.85;3.47;;;2.80;99.90;;;;;;4895664;29;20056;-85
2021/12/09 13:36:02;;;;;;;4.05;2.60;;;2.80;99.90;;;;;;4895635;29;20440;-85
2021/12/09 13:49:37;;;;;;;1.40;1.30;;;2.80;99.90;;;;;;4899394;28;20241;-85
2021/12/09 13:55:09;;;;;;;1.73;1.05;;;2.90;99.90;;;;;;4992932;28;20145;-86
2021/12/09 13:58:01;;;;;;;8.23;2.08;;;2.80;99.90;;;;;;4976167;28;20054;-84
2021/12/09 14:00:26;;;;;;;0.47;0.47;;;2.90;99.90;;;;;;4993403;28;20058;-82
2021/12/09 14:03:02;;;;;;;11.70;3.03;;;2.90;99.90;;;;;;4993319;28;20039;-86
2021/12/09 14:05:57;;;;;;;3.30;1.95;;;2.90;99.90;;;;;;4975934;28;20045;-84
2021/12/09 14:08:53;;;;;;;1.75;1.75;;;2.80;99.90;;;;;;4991881;28;20160;-85
2021/12/09 14:11:29;;;;;;;1.23;1.23;;;2.90;99.90;;;;;;4977872;28;20077;-91
2021/12/09 14:14:11;;;;;;;0.82;0.82;;;2.90;99.90;;;;;;4978326;28;20042;-89
2021/12/09 14:16:47;;;;;;;6.15;1.45;;;2.80;99.90;;;;;;4980134;28;20058;-87